sensor_id;sensor_type;location;lat;lon;timestamp;pressure;altitude;pressure_sealevel;temperature;humidity
12793;BME280;6460;42.684;23.260;2023-04-29T00:01:59;94632.41;;;9.29;64.82
12793;BME280;6460;42.684;23.260;2023-04-29T00:04:27;94631.91;;;9.23;64.98
12793;BME280;6460;42.684;23.260;2023-04-29T00:06:56;94628.34;;;9.19;65.96
12793;BME280;6460;42.684;23.260;2023-04-29T00:09:23;94630.25;;;9.19;65.58
12793;BME280;6460;42.684;23.260;2023-04-29T00:11:51;94639.13;;;9.07;65.77
12793;BME280;6460;42.684;23.260;2023-04-29T00:14:18;94626.78;;;9.18;65.88
12793;BME280;6460;42.684;23.260;2023-04-29T00:16:46;94637.34;;;9.11;66.38
12793;BME280;6460;42.684;23.260;2023-04-29T00:19:13;94641.13;;;9.10;66.45
12793;BME280;6460;42.684;23.260;2023-04-29T00:21:43;94632.84;;;8.99;66.58
12793;BME280;6460;42.684;23.260;2023-04-29T00:24:14;94643.56;;;8.99;66.29
12793;BME280;6460;42.684;23.260;2023-04-29T00:26:41;94639.69;;;8.85;67.24
12793;BME280;6460;42.684;23.260;2023-04-29T00:29:09;94643.50;;;8.84;66.95
12793;BME280;6460;42.684;23.260;2023-04-29T00:31:36;94627.34;;;8.80;67.45
12793;BME280;6460;42.684;23.260;2023-04-29T00:34:04;94639.69;;;8.85;67.39
12793;BME280;6460;42.684;23.260;2023-04-29T00:36:31;94632.88;;;8.87;66.65
12793;BME280;6460;42.684;23.260;2023-04-29T00:38:58;94642.09;;;8.74;66.92
12793;BME280;6460;42.684;23.260;2023-04-29T00:41:27;94634.78;;;8.31;68.65
12793;BME280;6460;42.684;23.260;2023-04-29T00:43:54;94639.19;;;8.27;68.83
12793;BME280;6460;42.684;23.260;2023-04-29T00:46:21;94636.16;;;7.89;71.47
12793;BME280;6460;42.684;23.260;2023-04-29T00:48:48;94631.66;;;8.05;71.20
12793;BME280;6460;42.684;23.260;2023-04-29T00:51:17;94640.72;;;8.01;71.55
12793;BME280;6460;42.684;23.260;2023-04-29T00:53:44;94633.50;;;7.77;73.02
12793;BME280;6460;42.684;23.260;2023-04-29T00:56:11;94635.38;;;7.76;73.74
12793;BME280;6460;42.684;23.260;2023-04-29T00:58:41;94625.25;;;7.70;73.36
12793;BME280;6460;42.684;23.260;2023-04-29T01:01:15;94618.41;;;7.96;72.63
12793;BME280;6460;42.684;23.260;2023-04-29T01:03:44;94613.44;;;7.71;73.70
12793;BME280;6460;42.684;23.260;2023-04-29T01:06:19;94612.09;;;7.65;74.26
12793;BME280;6460;42.684;23.260;2023-04-29T01:09:01;94604.75;;;7.74;74.18
12793;BME280;6460;42.684;23.260;2023-04-29T01:11:34;94615.00;;;7.72;74.05
12793;BME280;6460;42.684;23.260;2023-04-29T01:14:04;94597.63;;;7.66;74.71
12793;BME280;6460;42.684;23.260;2023-04-29T01:16:36;94600.63;;;7.52;75.31
12793;BME280;6460;42.684;23.260;2023-04-29T01:19:14;94596.59;;;7.34;75.75
12793;BME280;6460;42.684;23.260;2023-04-29T01:21:45;94594.50;;;7.52;75.07
12793;BME280;6460;42.684;23.260;2023-04-29T01:24:16;94590.91;;;7.60;75.09
12793;BME280;6460;42.684;23.260;2023-04-29T01:26:48;94598.47;;;7.82;74.33
12793;BME280;6460;42.684;23.260;2023-04-29T01:29:23;94593.13;;;7.82;74.41
12793;BME280;6460;42.684;23.260;2023-04-29T01:32:00;94597.16;;;7.76;74.26
12793;BME280;6460;42.684;23.260;2023-04-29T01:34:33;94602.97;;;7.78;74.00
12793;BME280;6460;42.684;23.260;2023-04-29T01:37:09;94601.81;;;7.91;73.37
12793;BME280;6460;42.684;23.260;2023-04-29T01:39:45;94603.28;;;7.64;74.35
12793;BME280;6460;42.684;23.260;2023-04-29T01:42:21;94600.50;;;7.73;74.48
12793;BME280;6460;42.684;23.260;2023-04-29T01:44:52;94598.94;;;7.47;75.33
12793;BME280;6460;42.684;23.260;2023-04-29T01:47:21;94592.72;;;7.43;76.17
12793;BME280;6460;42.684;23.260;2023-04-29T01:49:49;94600.97;;;7.26;76.55
12793;BME280;6460;42.684;23.260;2023-04-29T01:52:16;94595.28;;;7.52;75.42
12793;BME280;6460;42.684;23.260;2023-04-29T01:54:45;94598.06;;;7.31;76.30
12793;BME280;6460;42.684;23.260;2023-04-29T01:57:12;94597.38;;;7.10;76.81
12793;BME280;6460;42.684;23.260;2023-04-29T01:59:39;94600.41;;;7.45;76.12
12793;BME280;6460;42.684;23.260;2023-04-29T02:02:06;94597.06;;;7.36;76.04
12793;BME280;6460;42.684;23.260;2023-04-29T02:04:35;94600.06;;;7.59;75.08
12793;BME280;6460;42.684;23.260;2023-04-29T02:07:02;94601.94;;;7.70;74.62
12793;BME280;6460;42.684;23.260;2023-04-29T02:09:29;94604.97;;;7.69;74.86
12793;BME280;6460;42.684;23.260;2023-04-29T02:11:58;94611.97;;;7.73;74.65
12793;BME280;6460;42.684;23.260;2023-04-29T02:14:25;94612.97;;;7.81;74.22
12793;BME280;6460;42.684;23.260;2023-04-29T02:16:52;94611.31;;;7.76;74.83
12793;BME280;6460;42.684;23.260;2023-04-29T02:19:19;94603.19;;;7.61;74.80
12793;BME280;6460;42.684;23.260;2023-04-29T02:21:46;94604.41;;;7.75;74.14
12793;BME280;6460;42.684;23.260;2023-04-29T02:24:14;94605.41;;;7.71;73.23
12793;BME280;6460;42.684;23.260;2023-04-29T02:26:41;94604.88;;;7.65;73.63
12793;BME280;6460;42.684;23.260;2023-04-29T02:29:09;94599.63;;;7.57;74.67
12793;BME280;6460;42.684;23.260;2023-04-29T02:31:37;94592.50;;;7.61;74.42
12793;BME280;6460;42.684;23.260;2023-04-29T02:34:04;94594.03;;;7.37;74.94
12793;BME280;6460;42.684;23.260;2023-04-29T02:36:31;94598.94;;;7.47;75.77
12793;BME280;6460;42.684;23.260;2023-04-29T02:38:58;94602.97;;;7.41;75.81
12793;BME280;6460;42.684;23.260;2023-04-29T02:41:26;94600.97;;;7.38;76.02
12793;BME280;6460;42.684;23.260;2023-04-29T02:43:53;94597.28;;;7.43;75.35
12793;BME280;6460;42.684;23.260;2023-04-29T02:46:21;94600.28;;;7.17;76.37
12793;BME280;6460;42.684;23.260;2023-04-29T02:48:48;94596.28;;;7.11;76.76
12793;BME280;6460;42.684;23.260;2023-04-29T02:51:16;94608.50;;;7.24;76.63
12793;BME280;6460;42.684;23.260;2023-04-29T02:53:43;94595.38;;;7.31;76.33
12793;BME280;6460;42.684;23.260;2023-04-29T02:56:10;94607.19;;;7.18;76.91
12793;BME280;6460;42.684;23.260;2023-04-29T02:58:37;94630.13;;;7.19;76.62
12793;BME280;6460;42.684;23.260;2023-04-29T03:01:04;94619.88;;;7.21;76.18
12793;BME280;6460;42.684;23.260;2023-04-29T03:03:33;94619.44;;;7.31;75.64
12793;BME280;6460;42.684;23.260;2023-04-29T03:06:00;94608.97;;;7.26;75.24
12793;BME280;6460;42.684;23.260;2023-04-29T03:08:27;94617.59;;;6.87;76.20
12793;BME280;6460;42.684;23.260;2023-04-29T03:10:55;94619.06;;;6.64;77.49
12793;BME280;6460;42.684;23.260;2023-04-29T03:13:22;94615.03;;;6.90;76.64
12793;BME280;6460;42.684;23.260;2023-04-29T03:15:50;94619.31;;;6.71;77.56
12793;BME280;6460;42.684;23.260;2023-04-29T03:18:17;94619.03;;;6.84;76.86
12793;BME280;6460;42.684;23.260;2023-04-29T03:20:46;94621.16;;;6.79;76.10
12793;BME280;6460;42.684;23.260;2023-04-29T03:23:13;94625.06;;;6.61;76.68
12793;BME280;6460;42.684;23.260;2023-04-29T03:25:40;94641.59;;;6.75;76.38
12793;BME280;6460;42.684;23.260;2023-04-29T03:28:07;94633.16;;;6.73;77.31
12793;BME280;6460;42.684;23.260;2023-04-29T03:30:34;94639.66;;;6.96;76.83
12793;BME280;6460;42.684;23.260;2023-04-29T03:33:02;94647.75;;;6.87;76.81
12793;BME280;6460;42.684;23.260;2023-04-29T03:35:29;94652.84;;;6.48;79.11
12793;BME280;6460;42.684;23.260;2023-04-29T03:37:57;94649.41;;;6.47;79.62
12793;BME280;6460;42.684;23.260;2023-04-29T03:40:24;94639.88;;;6.58;79.31
12793;BME280;6460;42.684;23.260;2023-04-29T03:42:51;94651.19;;;6.76;78.66
12793;BME280;6460;42.684;23.260;2023-04-29T03:45:18;94634.53;;;6.91;77.95
12793;BME280;6460;42.684;23.260;2023-04-29T03:47:45;94640.28;;;6.81;77.60
12793;BME280;6460;42.684;23.260;2023-04-29T03:50:12;94645.69;;;6.60;78.93
12793;BME280;6460;42.684;23.260;2023-04-29T03:52:39;94634.41;;;6.55;79.47
12793;BME280;6460;42.684;23.260;2023-04-29T03:55:08;94635.06;;;6.52;80.20
12793;BME280;6460;42.684;23.260;2023-04-29T03:57:36;94642.47;;;6.67;79.88
12793;BME280;6460;42.684;23.260;2023-04-29T04:00:04;94642.91;;;6.69;79.19
12793;BME280;6460;42.684;23.260;2023-04-29T04:02:31;94648.00;;;6.62;79.96
12793;BME280;6460;42.684;23.260;2023-04-29T04:04:59;94645.34;;;6.62;80.50
12793;BME280;6460;42.684;23.260;2023-04-29T04:07:26;94650.66;;;6.62;80.95
12793;BME280;6460;42.684;23.260;2023-04-29T04:09:53;94650.41;;;6.55;81.14
12793;BME280;6460;42.684;23.260;2023-04-29T04:12:22;94650.75;;;6.53;80.67
12793;BME280;6460;42.684;23.260;2023-04-29T04:14:48;94652.78;;;6.89;79.49
12793;BME280;6460;42.684;23.260;2023-04-29T04:17:15;94656.28;;;6.69;79.79
12793;BME280;6460;42.684;23.260;2023-04-29T04:19:42;94660.22;;;6.51;80.47
12793;BME280;6460;42.684;23.260;2023-04-29T04:22:09;94655.69;;;6.96;79.34
12793;BME280;6460;42.684;23.260;2023-04-29T04:24:36;94652.34;;;6.99;79.45
12793;BME280;6460;42.684;23.260;2023-04-29T04:27:05;94643.34;;;7.04;79.58
12793;BME280;6460;42.684;23.260;2023-04-29T04:29:33;94642.16;;;7.13;79.28
12793;BME280;6460;42.684;23.260;2023-04-29T04:32:00;94643.72;;;7.26;82.88
12793;BME280;6460;42.684;23.260;2023-04-29T04:34:27;94643.88;;;7.78;85.44
12793;BME280;6460;42.684;23.260;2023-04-29T04:36:54;94644.84;;;7.98;78.89
12793;BME280;6460;42.684;23.260;2023-04-29T04:39:21;94655.78;;;7.81;76.40
12793;BME280;6460;42.684;23.260;2023-04-29T04:41:49;94654.00;;;7.61;76.77
12793;BME280;6460;42.684;23.260;2023-04-29T04:44:16;94659.34;;;7.61;76.38
12793;BME280;6460;42.684;23.260;2023-04-29T04:46:44;94663.03;;;7.68;77.08
12793;BME280;6460;42.684;23.260;2023-04-29T04:49:11;94655.56;;;7.74;78.98
12793;BME280;6460;42.684;23.260;2023-04-29T04:51:39;94641.19;;;7.78;78.94
12793;BME280;6460;42.684;23.260;2023-04-29T04:54:06;94641.75;;;7.72;78.05
12793;BME280;6460;42.684;23.260;2023-04-29T04:56:35;94637.72;;;7.90;77.57
12793;BME280;6460;42.684;23.260;2023-04-29T04:59:03;94644.63;;;7.91;75.70
12793;BME280;6460;42.684;23.260;2023-04-29T05:01:29;94646.06;;;7.88;75.21
12793;BME280;6460;42.684;23.260;2023-04-29T05:03:58;94635.59;;;7.95;73.80
12793;BME280;6460;42.684;23.260;2023-04-29T05:06:25;94644.63;;;7.91;74.87
12793;BME280;6460;42.684;23.260;2023-04-29T05:08:52;94636.13;;;8.01;75.61
12793;BME280;6460;42.684;23.260;2023-04-29T05:11:20;94641.06;;;7.99;75.07
12793;BME280;6460;42.684;23.260;2023-04-29T05:13:47;94621.84;;;8.09;74.20
12793;BME280;6460;42.684;23.260;2023-04-29T05:16:14;94624.69;;;8.40;71.48
12793;BME280;6460;42.684;23.260;2023-04-29T05:18:42;94625.69;;;8.48;71.57
12793;BME280;6460;42.684;23.260;2023-04-29T05:21:11;94618.44;;;8.48;71.39
12793;BME280;6460;42.684;23.260;2023-04-29T05:23:38;94616.63;;;8.52;71.08
12793;BME280;6460;42.684;23.260;2023-04-29T05:26:06;94616.34;;;8.42;71.80
12793;BME280;6460;42.684;23.260;2023-04-29T05:28:33;94614.78;;;8.41;72.24
12793;BME280;6460;42.684;23.260;2023-04-29T05:31:00;94623.78;;;8.48;72.41
12793;BME280;6460;42.684;23.260;2023-04-29T05:33:27;94625.97;;;8.59;72.80
12793;BME280;6460;42.684;23.260;2023-04-29T05:35:54;94626.38;;;8.73;72.02
12793;BME280;6460;42.684;23.260;2023-04-29T05:38:22;94617.69;;;8.64;72.46
12793;BME280;6460;42.684;23.260;2023-04-29T05:40:53;94612.81;;;8.54;71.63
12793;BME280;6460;42.684;23.260;2023-04-29T05:43:20;94620.84;;;8.54;71.16
12793;BME280;6460;42.684;23.260;2023-04-29T05:45:48;94611.66;;;8.67;70.60
12793;BME280;6460;42.684;23.260;2023-04-29T05:48:15;94622.56;;;8.74;70.48
12793;BME280;6460;42.684;23.260;2023-04-29T05:50:43;94623.03;;;8.91;69.98
12793;BME280;6460;42.684;23.260;2023-04-29T05:53:10;94623.38;;;8.90;70.27
12793;BME280;6460;42.684;23.260;2023-04-29T05:55:38;94622.13;;;9.15;70.78
12793;BME280;6460;42.684;23.260;2023-04-29T05:58:09;94621.78;;;9.32;70.06
12793;BME280;6460;42.684;23.260;2023-04-29T06:00:36;94629.75;;;9.44;69.35
12793;BME280;6460;42.684;23.260;2023-04-29T06:03:03;94620.53;;;9.77;68.27
12793;BME280;6460;42.684;23.260;2023-04-29T06:05:31;94633.41;;;10.02;66.18
12793;BME280;6460;42.684;23.260;2023-04-29T06:07:58;94622.03;;;10.25;65.11
12793;BME280;6460;42.684;23.260;2023-04-29T06:10:25;94618.16;;;10.41;64.71
12793;BME280;6460;42.684;23.260;2023-04-29T06:12:54;94616.09;;;10.54;63.29
12793;BME280;6460;42.684;23.260;2023-04-29T06:15:21;94617.16;;;9.95;64.91
12793;BME280;6460;42.684;23.260;2023-04-29T06:17:48;94613.00;;;10.71;63.39
12793;BME280;6460;42.684;23.260;2023-04-29T06:20:15;94622.41;;;10.81;63.33
12793;BME280;6460;42.684;23.260;2023-04-29T06:22:42;94612.78;;;10.80;64.59
12793;BME280;6460;42.684;23.260;2023-04-29T06:25:10;94617.16;;;10.88;64.50
12793;BME280;6460;42.684;23.260;2023-04-29T06:27:38;94621.47;;;10.92;62.15
12793;BME280;6460;42.684;23.260;2023-04-29T06:30:08;94625.78;;;10.20;65.26
12793;BME280;6460;42.684;23.260;2023-04-29T06:32:36;94609.38;;;10.44;65.53
12793;BME280;6460;42.684;23.260;2023-04-29T06:35:04;94617.38;;;10.79;64.71
12793;BME280;6460;42.684;23.260;2023-04-29T06:37:31;94613.94;;;11.01;63.08
12793;BME280;6460;42.684;23.260;2023-04-29T06:39:58;94615.31;;;10.92;62.98
12793;BME280;6460;42.684;23.260;2023-04-29T06:42:26;94610.41;;;11.17;62.90
12793;BME280;6460;42.684;23.260;2023-04-29T06:44:53;94615.75;;;11.39;61.34
12793;BME280;6460;42.684;23.260;2023-04-29T06:47:21;94603.94;;;11.44;60.42
12793;BME280;6460;42.684;23.260;2023-04-29T06:49:49;94611.03;;;11.55;60.89
12793;BME280;6460;42.684;23.260;2023-04-29T06:52:22;94605.31;;;11.80;59.56
12793;BME280;6460;42.684;23.260;2023-04-29T06:54:53;94608.53;;;12.15;59.66
12793;BME280;6460;42.684;23.260;2023-04-29T06:57:20;94606.78;;;12.30;57.43
12793;BME280;6460;42.684;23.260;2023-04-29T06:59:48;94607.91;;;12.25;57.07
12793;BME280;6460;42.684;23.260;2023-04-29T07:02:14;94601.41;;;12.30;56.73
12793;BME280;6460;42.684;23.260;2023-04-29T07:04:43;94607.84;;;12.51;56.20
12793;BME280;6460;42.684;23.260;2023-04-29T07:07:10;94595.00;;;12.41;55.73
12793;BME280;6460;42.684;23.260;2023-04-29T07:09:37;94596.34;;;11.98;56.31
12793;BME280;6460;42.684;23.260;2023-04-29T07:12:04;94602.06;;;12.23;56.50
12793;BME280;6460;42.684;23.260;2023-04-29T07:14:31;94600.34;;;12.08;58.53
12793;BME280;6460;42.684;23.260;2023-04-29T07:16:58;94591.59;;;12.44;59.26
12793;BME280;6460;42.684;23.260;2023-04-29T07:19:25;94588.06;;;12.73;58.58
12793;BME280;6460;42.684;23.260;2023-04-29T07:21:54;94592.00;;;13.13;59.93
12793;BME280;6460;42.684;23.260;2023-04-29T07:24:21;94594.84;;;13.71;53.48
12793;BME280;6460;42.684;23.260;2023-04-29T07:26:48;94593.16;;;14.07;51.18
12793;BME280;6460;42.684;23.260;2023-04-29T07:29:15;94601.16;;;14.47;51.41
12793;BME280;6460;42.684;23.260;2023-04-29T07:31:42;94589.75;;;15.03;48.31
12793;BME280;6460;42.684;23.260;2023-04-29T07:34:09;94579.75;;;15.14;45.82
12793;BME280;6460;42.684;23.260;2023-04-29T07:36:37;94576.59;;;14.98;45.08
12793;BME280;6460;42.684;23.260;2023-04-29T07:39:05;94580.88;;;15.03;45.61
12793;BME280;6460;42.684;23.260;2023-04-29T07:41:32;94582.88;;;15.30;47.53
12793;BME280;6460;42.684;23.260;2023-04-29T07:43:59;94585.59;;;15.41;41.99
12793;BME280;6460;42.684;23.260;2023-04-29T07:46:26;94576.56;;;14.77;43.28
12793;BME280;6460;42.684;23.260;2023-04-29T07:48:53;94573.53;;;15.07;43.44
12793;BME280;6460;42.684;23.260;2023-04-29T07:51:20;94571.25;;;15.23;43.68
12793;BME280;6460;42.684;23.260;2023-04-29T07:53:48;94568.94;;;15.43;63.09
12793;BME280;6460;42.684;23.260;2023-04-29T07:56:24;94554.78;;;16.78;63.00
12793;BME280;6460;42.684;23.260;2023-04-29T07:58:53;94543.38;;;17.74;66.70
12793;BME280;6460;42.684;23.260;2023-04-29T08:01:20;94553.59;;;18.41;58.16
12793;BME280;6460;42.684;23.260;2023-04-29T08:03:47;94547.13;;;18.65;54.06
12793;BME280;6460;42.684;23.260;2023-04-29T08:06:14;94544.91;;;19.17;59.91
12793;BME280;6460;42.684;23.260;2023-04-29T08:08:41;94541.94;;;18.74;39.33
12793;BME280;6460;42.684;23.260;2023-04-29T08:11:14;94543.63;;;18.95;43.39
12793;BME280;6460;42.684;23.260;2023-04-29T08:13:42;94540.81;;;18.72;38.65
12793;BME280;6460;42.684;23.260;2023-04-29T08:16:09;94539.03;;;18.21;44.47
12793;BME280;6460;42.684;23.260;2023-04-29T08:18:36;94544.41;;;18.65;43.24
12793;BME280;6460;42.684;23.260;2023-04-29T08:21:03;94539.50;;;18.53;47.73
12793;BME280;6460;42.684;23.260;2023-04-29T08:23:30;94542.59;;;17.73;51.35
12793;BME280;6460;42.684;23.260;2023-04-29T08:25:58;94539.78;;;18.25;49.02
12793;BME280;6460;42.684;23.260;2023-04-29T08:28:25;94533.53;;;18.62;46.07
12793;BME280;6460;42.684;23.260;2023-04-29T08:30:53;94535.84;;;19.24;44.17
12793;BME280;6460;42.684;23.260;2023-04-29T08:33:21;94541.13;;;17.62;39.30
12793;BME280;6460;42.684;23.260;2023-04-29T08:35:48;94537.84;;;19.20;38.74
12793;BME280;6460;42.684;23.260;2023-04-29T08:38:15;94530.38;;;20.00;35.01
12793;BME280;6460;42.684;23.260;2023-04-29T08:40:43;94522.09;;;19.84;50.14
12793;BME280;6460;42.684;23.260;2023-04-29T08:43:12;94523.00;;;19.51;35.31
12793;BME280;6460;42.684;23.260;2023-04-29T08:45:40;94533.38;;;17.60;42.11
12793;BME280;6460;42.684;23.260;2023-04-29T08:48:09;94524.88;;;19.00;45.45
12793;BME280;6460;42.684;23.260;2023-04-29T08:50:37;94514.16;;;19.43;40.09
12793;BME280;6460;42.684;23.260;2023-04-29T08:53:05;94518.44;;;17.82;35.16
12793;BME280;6460;42.684;23.260;2023-04-29T08:55:34;94514.41;;;19.26;42.44
12793;BME280;6460;42.684;23.260;2023-04-29T08:58:02;94515.00;;;19.64;42.65
12793;BME280;6460;42.684;23.260;2023-04-29T09:00:31;94512.44;;;19.53;35.05
12793;BME280;6460;42.684;23.260;2023-04-29T09:02:59;94510.84;;;20.02;33.64
12793;BME280;6460;42.684;23.260;2023-04-29T09:05:28;94510.34;;;19.87;36.91
12793;BME280;6460;42.684;23.260;2023-04-29T09:07:56;94509.69;;;19.30;32.50
12793;BME280;6460;42.684;23.260;2023-04-29T09:10:24;94502.50;;;19.43;33.16
12793;BME280;6460;42.684;23.260;2023-04-29T09:12:55;94504.63;;;19.55;41.71
12793;BME280;6460;42.684;23.260;2023-04-29T09:15:35;94506.84;;;20.30;37.02
12793;BME280;6460;42.684;23.260;2023-04-29T09:21:38;94502.81;;;20.15;37.91
12793;BME280;6460;42.684;23.260;2023-04-29T09:24:05;94496.09;;;19.53;34.08
12793;BME280;6460;42.684;23.260;2023-04-29T09:26:40;94503.91;;;19.51;33.74
12793;BME280;6460;42.684;23.260;2023-04-29T09:29:10;94493.44;;;19.23;37.17
12793;BME280;6460;42.684;23.260;2023-04-29T09:31:38;94497.28;;;19.52;35.57
12793;BME280;6460;42.684;23.260;2023-04-29T09:34:05;94489.59;;;19.70;32.77
12793;BME280;6460;42.684;23.260;2023-04-29T09:36:38;94490.28;;;19.24;32.46
12793;BME280;6460;42.684;23.260;2023-04-29T09:39:08;94481.06;;;19.68;39.32
12793;BME280;6460;42.684;23.260;2023-04-29T09:41:39;94476.44;;;20.08;35.51
12793;BME280;6460;42.684;23.260;2023-04-29T09:44:08;94474.03;;;20.53;41.52
12793;BME280;6460;42.684;23.260;2023-04-29T09:46:36;94474.00;;;20.92;32.45
12793;BME280;6460;42.684;23.260;2023-04-29T09:49:21;94473.19;;;20.56;31.63
12793;BME280;6460;42.684;23.260;2023-04-29T09:51:54;94466.03;;;20.62;35.04
12793;BME280;6460;42.684;23.260;2023-04-29T09:54:22;94461.78;;;20.61;31.29
12793;BME280;6460;42.684;23.260;2023-04-29T09:56:50;94464.50;;;20.22;36.21
12793;BME280;6460;42.684;23.260;2023-04-29T09:59:18;94460.34;;;19.94;34.11
12793;BME280;6460;42.684;23.260;2023-04-29T10:01:48;94459.41;;;19.08;33.41
12793;BME280;6460;42.684;23.260;2023-04-29T10:04:17;94456.69;;;19.08;33.40
12793;BME280;6460;42.684;23.260;2023-04-29T10:06:45;94451.38;;;19.24;35.03
12793;BME280;6460;42.684;23.260;2023-04-29T10:09:16;94443.56;;;19.72;35.00
12793;BME280;6460;42.684;23.260;2023-04-29T10:11:45;94442.56;;;20.05;32.96
12793;BME280;6460;42.684;23.260;2023-04-29T10:14:14;94445.28;;;20.29;31.09
12793;BME280;6460;42.684;23.260;2023-04-29T10:16:46;94430.34;;;19.24;31.40
12793;BME280;6460;42.684;23.260;2023-04-29T10:19:24;94445.94;;;19.24;31.24
12793;BME280;6460;42.684;23.260;2023-04-29T10:21:53;94438.22;;;19.19;31.72
12793;BME280;6460;42.684;23.260;2023-04-29T10:24:24;94431.97;;;18.95;32.36
12793;BME280;6460;42.684;23.260;2023-04-29T10:26:53;94439.28;;;19.25;31.70
12793;BME280;6460;42.684;23.260;2023-04-29T10:29:24;94435.78;;;19.24;31.87
12793;BME280;6460;42.684;23.260;2023-04-29T10:31:55;94437.50;;;18.61;32.17
12793;BME280;6460;42.684;23.260;2023-04-29T10:34:23;94427.31;;;19.19;31.55
12793;BME280;6460;42.684;23.260;2023-04-29T10:36:52;94441.31;;;19.21;31.53
12793;BME280;6460;42.684;23.260;2023-04-29T10:39:26;94432.84;;;18.88;31.88
12793;BME280;6460;42.684;23.260;2023-04-29T10:41:57;94430.63;;;19.07;31.93
12793;BME280;6460;42.684;23.260;2023-04-29T10:44:24;94436.06;;;19.07;32.74
12793;BME280;6460;42.684;23.260;2023-04-29T10:47:18;94428.88;;;19.20;34.27
12793;BME280;6460;42.684;23.260;2023-04-29T10:50:01;94431.41;;;18.80;32.18
12793;BME280;6460;42.684;23.260;2023-04-29T10:52:29;94424.34;;;18.56;31.74
12793;BME280;6460;42.684;23.260;2023-04-29T10:55:02;94417.94;;;18.39;32.29
12793;BME280;6460;42.684;23.260;2023-04-29T10:57:29;94424.56;;;18.95;30.75
12793;BME280;6460;42.684;23.260;2023-04-29T10:59:57;94418.34;;;18.95;30.44
12793;BME280;6460;42.684;23.260;2023-04-29T11:02:25;94411.91;;;19.09;29.55
12793;BME280;6460;42.684;23.260;2023-04-29T11:05:08;94416.25;;;19.29;28.29
12793;BME280;6460;42.684;23.260;2023-04-29T11:07:36;94419.00;;;19.02;29.33
12793;BME280;6460;42.684;23.260;2023-04-29T11:10:06;94418.78;;;19.17;27.35
12793;BME280;6460;42.684;23.260;2023-04-29T11:12:33;94414.06;;;19.21;27.81
12793;BME280;6460;42.684;23.260;2023-04-29T11:15:00;94420.59;;;18.43;26.06
12793;BME280;6460;42.684;23.260;2023-04-29T11:17:34;94411.34;;;18.67;25.67
12793;BME280;6460;42.684;23.260;2023-04-29T11:20:02;94418.09;;;18.59;26.37
12793;BME280;6460;42.684;23.260;2023-04-29T11:22:29;94415.06;;;18.80;26.16
12793;BME280;6460;42.684;23.260;2023-04-29T11:25:00;94410.28;;;18.61;26.44
12793;BME280;6460;42.684;23.260;2023-04-29T11:27:31;94418.19;;;18.48;26.72
12793;BME280;6460;42.684;23.260;2023-04-29T11:29:59;94418.97;;;18.49;26.83
12793;BME280;6460;42.684;23.260;2023-04-29T11:32:29;94417.09;;;18.42;27.48
12793;BME280;6460;42.684;23.260;2023-04-29T11:35:06;94413.03;;;17.93;28.20
12793;BME280;6460;42.684;23.260;2023-04-29T11:37:34;94420.59;;;17.79;27.88
12793;BME280;6460;42.684;23.260;2023-04-29T11:40:01;94410.03;;;17.84;27.79
12793;BME280;6460;42.684;23.260;2023-04-29T11:42:29;94415.50;;;17.40;29.16
12793;BME280;6460;42.684;23.260;2023-04-29T11:44:56;94415.78;;;17.56;28.55
12793;BME280;6460;42.684;23.260;2023-04-29T11:47:29;94416.81;;;17.69;28.31
12793;BME280;6460;42.684;23.260;2023-04-29T11:50:03;94415.34;;;17.61;28.51
12793;BME280;6460;42.684;23.260;2023-04-29T11:52:32;94411.03;;;17.23;29.63
12793;BME280;6460;42.684;23.260;2023-04-29T11:54:59;94407.94;;;17.62;28.78
12793;BME280;6460;42.684;23.260;2023-04-29T11:57:26;94412.22;;;17.63;30.42
12793;BME280;6460;42.684;23.260;2023-04-29T11:59:54;94408.53;;;17.39;30.68
12793;BME280;6460;42.684;23.260;2023-04-29T12:02:22;94397.81;;;17.21;31.09
12793;BME280;6460;42.684;23.260;2023-04-29T12:04:54;94403.09;;;17.39;30.92
12793;BME280;6460;42.684;23.260;2023-04-29T12:07:21;94399.91;;;17.48;30.85
12793;BME280;6460;42.684;23.260;2023-04-29T12:09:49;94395.97;;;17.56;32.05
12793;BME280;6460;42.684;23.260;2023-04-29T12:12:15;94403.56;;;17.71;35.09
12793;BME280;6460;42.684;23.260;2023-04-29T12:14:42;94398.06;;;17.78;34.23
12793;BME280;6460;42.684;23.260;2023-04-29T12:17:11;94388.94;;;17.95;38.60
12793;BME280;6460;42.684;23.260;2023-04-29T12:19:39;94394.50;;;17.85;41.34
12793;BME280;6460;42.684;23.260;2023-04-29T12:22:08;94391.13;;;18.08;31.48
12793;BME280;6460;42.684;23.260;2023-04-29T12:24:37;94391.13;;;18.08;30.60
12793;BME280;6460;42.684;23.260;2023-04-29T12:27:07;94385.69;;;18.08;34.32
12793;BME280;6460;42.684;23.260;2023-04-29T12:29:34;94382.94;;;18.11;39.88
12793;BME280;6460;42.684;23.260;2023-04-29T12:32:01;94382.72;;;18.25;32.78
12793;BME280;6460;42.684;23.260;2023-04-29T12:34:31;94384.97;;;18.34;30.23
12793;BME280;6460;42.684;23.260;2023-04-29T12:36:59;94384.69;;;17.94;29.56
12793;BME280;6460;42.684;23.260;2023-04-29T12:39:26;94376.78;;;18.04;30.72
12793;BME280;6460;42.684;23.260;2023-04-29T12:41:54;94382.63;;;18.06;30.08
12793;BME280;6460;42.684;23.260;2023-04-29T12:44:22;94369.72;;;18.40;49.56
12793;BME280;6460;42.684;23.260;2023-04-29T12:46:49;94373.91;;;19.01;50.46
12793;BME280;6460;42.684;23.260;2023-04-29T12:49:18;94367.56;;;19.54;48.43
12793;BME280;6460;42.684;23.260;2023-04-29T12:51:47;94371.16;;;19.71;30.70
12793;BME280;6460;42.684;23.260;2023-04-29T12:54:14;94371.97;;;19.48;29.07
12793;BME280;6460;42.684;23.260;2023-04-29T12:56:41;94363.84;;;19.45;29.16
12793;BME280;6460;42.684;23.260;2023-04-29T12:59:08;94370.25;;;18.58;30.05
12793;BME280;6460;42.684;23.260;2023-04-29T13:01:36;94365.69;;;18.52;31.88
12793;BME280;6460;42.684;23.260;2023-04-29T13:04:03;94362.94;;;18.55;31.56
12793;BME280;6460;42.684;23.260;2023-04-29T13:06:33;94369.59;;;17.49;32.19
12793;BME280;6460;42.684;23.260;2023-04-29T13:09:05;94364.81;;;17.67;32.36
12793;BME280;6460;42.684;23.260;2023-04-29T13:11:34;94372.56;;;18.03;32.59
12793;BME280;6460;42.684;23.260;2023-04-29T13:14:01;94364.28;;;18.10;33.56
12793;BME280;6460;42.684;23.260;2023-04-29T13:16:29;94360.09;;;18.32;33.90